Time,TemperatureF,DewpointF,PressureIn,WindDirection,WindDirectionDegrees,WindSpeedMPH,WindSpeedGustMPH,Humidity,HourlyPrecipIn,Conditions,Clouds,dailyrainin,SoftwareType,DateUTC
2013-05-02 00:13:00,-999.0,-99.9,29.73,North,-999,-999.0,-999.0,-999,-99.99,,,0.00,weatherlink.com 1.10,2013-05-02 08:13:00,
2013-05-02 00:28:00,-999.0,-99.9,29.74,North,-999,-999.0,-999.0,-999,-99.99,,,0.00,weatherlink.com 1.10,2013-05-02 08:28:00,
2013-05-02 00:43:00,-999.0,-99.9,29.74,North,-999,-999.0,-999.0,-999,-99.99,,,0.00,weatherlink.com 1.10,2013-05-02 08:43:00,
2013-05-02 00:58:00,-999.0,-99.9,29.75,North,-999,-999.0,-999.0,-999,-99.99,,,0.00,weatherlink.com 1.10,2013-05-02 08:58:00,
2013-05-02 01:13:00,-999.0,-99.9,29.75,North,-999,-999.0,-999.0,-999,-99.99,,,0.00,weatherlink.com 1.10,2013-05-02 09:13:00,
2013-05-02 01:28:00,-999.0,-99.9,29.75,North,-999,-999.0,-999.0,-999,-99.99,,,0.00,weatherlink.com 1.10,2013-05-02 09:28:00,
2013-05-02 01:43:00,-999.0,-99.9,29.76,North,-999,-999.0,-999.0,-999,-99.99,,,0.00,weatherlink.com 1.10,2013-05-02 09:43:00,
2013-05-02 01:58:00,-999.0,-99.9,29.77,North,-999,-999.0,-999.0,-999,-99.99,,,0.00,weatherlink.com 1.10,2013-05-02 09:58:00,
2013-05-02 02:13:00,-999.0,-99.9,29.77,North,-999,-999.0,-999.0,-999,-99.99,,,0.00,weatherlink.com 1.10,2013-05-02 10:13:00,
2013-05-02 02:28:00,-999.0,-99.9,29.77,North,-999,-999.0,-999.0,-999,-99.99,,,0.00,weatherlink.com 1.10,2013-05-02 10:28:00,
2013-05-02 02:43:00,-999.0,-99.9,29.77,North,-999,-999.0,-999.0,-999,-99.99,,,0.00,weatherlink.com 1.10,2013-05-02 10:43:00,
2013-05-02 02:58:00,-999.0,-99.9,29.77,North,-999,-999.0,-999.0,-999,-99.99,,,0.00,weatherlink.com 1.10,2013-05-02 10:58:00,
2013-05-02 03:13:00,-999.0,-99.9,29.77,North,-999,-999.0,-999.0,-999,-99.99,,,0.00,weatherlink.com 1.10,2013-05-02 11:13:00,
2013-05-02 03:29:00,-999.0,-99.9,29.78,North,-999,-999.0,-999.0,-999,-99.99,,,0.00,weatherlink.com 1.10,2013-05-02 11:29:00,
2013-05-02 03:44:00,-999.0,-99.9,29.78,North,-999,-999.0,-999.0,-999,-99.99,,,0.00,weatherlink.com 1.10,2013-05-02 11:44:00,
2013-05-02 03:59:00,-999.0,-99.9,29.79,North,-999,-999.0,-999.0,-999,-99.99,,,0.00,weatherlink.com 1.10,2013-05-02 11:59:00,
2013-05-02 04:14:00,-999.0,-99.9,29.79,North,-999,-999.0,-999.0,-999,-99.99,,,0.00,weatherlink.com 1.10,2013-05-02 12:14:00,
2013-05-02 04:29:00,-999.0,-99.9,29.79,North,-999,-999.0,-999.0,-999,-99.99,,,0.00,weatherlink.com 1.10,2013-05-02 12:29:00,
2013-05-02 04:44:00,-999.0,-99.9,29.79,North,-999,-999.0,-999.0,-999,-99.99,,,0.00,weatherlink.com 1.10,2013-05-02 12:44:00,
2013-05-02 04:59:00,-999.0,-99.9,29.80,North,-999,-999.0,-999.0,-999,-99.99,,,0.00,weatherlink.com 1.10,2013-05-02 12:59:00,
2013-05-02 05:14:00,-999.0,-99.9,29.80,North,-999,-999.0,-999.0,-999,-99.99,,,0.00,weatherlink.com 1.10,2013-05-02 13:14:00,
2013-05-02 05:29:00,-999.0,-99.9,29.80,North,-999,-999.0,-999.0,-999,-99.99,,,0.00,weatherlink.com 1.10,2013-05-02 13:29:00,
2013-05-02 05:44:00,-999.0,-99.9,29.80,North,-999,-999.0,-999.0,-999,-99.99,,,0.00,weatherlink.com 1.10,2013-05-02 13:44:00,
2013-05-02 05:59:00,-999.0,-99.9,29.80,North,-999,-999.0,-999.0,-999,-99.99,,,0.00,weatherlink.com 1.10,2013-05-02 13:59:00,
2013-05-02 06:14:00,-999.0,-99.9,29.81,North,-999,-999.0,-999.0,-999,-99.99,,,0.00,weatherlink.com 1.10,2013-05-02 14:14:00,
2013-05-02 06:29:00,-999.0,-99.9,29.81,North,-999,-999.0,-999.0,-999,-99.99,,,0.00,weatherlink.com 1.10,2013-05-02 14:29:00,
2013-05-02 06:45:00,-999.0,-99.9,29.82,North,-999,-999.0,-999.0,-999,-99.99,,,0.00,weatherlink.com 1.10,2013-05-02 14:45:00,
2013-05-02 07:00:00,-999.0,-99.9,29.82,North,-999,-999.0,-999.0,-999,-99.99,,,0.00,weatherlink.com 1.10,2013-05-02 15:00:00,
2013-05-02 07:15:00,-999.0,-99.9,29.83,North,-999,-999.0,-999.0,-999,-99.99,,,0.00,weatherlink.com 1.10,2013-05-02 15:15:00,
2013-05-02 07:30:00,-999.0,-99.9,29.83,North,-999,-999.0,-999.0,-999,-99.99,,,0.00,weatherlink.com 1.10,2013-05-02 15:30:00,
2013-05-02 07:45:00,-999.0,-99.9,29.84,North,-999,-999.0,-999.0,-999,-99.99,,,0.00,weatherlink.com 1.10,2013-05-02 15:45:00,
2013-05-02 08:00:00,-999.0,-99.9,29.84,North,-999,-999.0,-999.0,-999,-99.99,,,0.00,weatherlink.com 1.10,2013-05-02 16:00:00,
2013-05-02 08:15:00,-999.0,-99.9,29.84,North,-999,-999.0,-999.0,-999,-99.99,,,0.00,weatherlink.com 1.10,2013-05-02 16:15:00,
2013-05-02 08:45:00,-999.0,-99.9,29.86,North,-999,-999.0,-999.0,-999,-99.99,,,0.00,weatherlink.com 1.10,2013-05-02 16:45:00,
2013-05-02 09:00:00,-999.0,-99.9,29.86,North,-999,-999.0,-999.0,-999,-99.99,,,0.00,weatherlink.com 1.10,2013-05-02 17:00:00,
2013-05-02 09:15:00,-999.0,-99.9,29.81,North,-999,-999.0,-999.0,-999,-99.99,,,0.00,weatherlink.com 1.10,2013-05-02 17:15:00,
2013-05-02 09:30:00,-999.0,-99.9,29.81,North,-999,-999.0,-999.0,-999,-99.99,,,0.00,weatherlink.com 1.10,2013-05-02 17:30:00,
2013-05-02 09:46:00,-999.0,-99.9,29.82,North,-999,-999.0,-999.0,-999,-99.99,,,0.00,weatherlink.com 1.10,2013-05-02 17:46:00,
2013-05-02 10:01:00,-999.0,-99.9,29.82,North,-999,-999.0,-999.0,-999,-99.99,,,0.00,weatherlink.com 1.10,2013-05-02 18:01:00,
2013-05-02 10:16:00,-999.0,-99.9,29.82,North,-999,-999.0,-999.0,-999,-99.99,,,0.00,weatherlink.com 1.10,2013-05-02 18:16:00,
2013-05-02 10:31:00,-999.0,-99.9,29.82,North,-999,-999.0,-999.0,-999,-99.99,,,0.00,weatherlink.com 1.10,2013-05-02 18:31:00,
2013-05-02 10:46:00,-999.0,-99.9,29.82,North,-999,-999.0,-999.0,-999,-99.99,,,0.00,weatherlink.com 1.10,2013-05-02 18:46:00,
2013-05-02 11:01:00,-999.0,-99.9,29.83,North,-999,-999.0,-999.0,-999,-99.99,,,0.00,weatherlink.com 1.10,2013-05-02 19:01:00,
2013-05-02 11:16:00,-999.0,-99.9,29.83,North,-999,-999.0,-999.0,-999,-99.99,,,0.00,weatherlink.com 1.10,2013-05-02 19:16:00,
2013-05-02 11:31:00,-999.0,-99.9,29.83,North,-999,-999.0,-999.0,-999,-99.99,,,0.00,weatherlink.com 1.10,2013-05-02 19:31:00,
2013-05-02 11:46:00,-999.0,-99.9,29.83,North,-999,-999.0,-999.0,-999,-99.99,,,0.00,weatherlink.com 1.10,2013-05-02 19:46:00,
2013-05-02 12:01:00,-999.0,-99.9,29.83,North,-999,-999.0,-999.0,-999,-99.99,,,0.00,weatherlink.com 1.10,2013-05-02 20:01:00,
2013-05-02 12:16:00,29.8,19.0,29.88,North,360,0.0,-999.0,64,-99.99,,,0.00,weatherlink.com 1.10,2013-05-02 20:16:00,
2013-05-02 12:31:00,31.6,20.0,29.88,North,360,0.0,-999.0,62,-99.99,,,0.00,weatherlink.com 1.10,2013-05-02 20:31:00,
2013-05-02 12:46:00,32.8,20.0,29.88,North,-999,0.0,-999.0,59,-99.99,,,0.00,weatherlink.com 1.10,2013-05-02 20:46:00,
2013-05-02 13:01:00,31.5,20.0,29.88,North,360,0.0,-999.0,62,-99.99,,,0.00,weatherlink.com 1.10,2013-05-02 21:01:00,
2013-05-02 13:16:00,32.6,20.0,29.88,North,360,0.0,-999.0,61,-99.99,,,0.00,weatherlink.com 1.10,2013-05-02 21:16:00,
2013-05-02 13:31:00,34.4,22.0,29.89,North,360,0.0,-999.0,60,-99.99,,,0.00,weatherlink.com 1.10,2013-05-02 21:31:00,
2013-05-02 13:46:00,34.6,21.0,29.89,North,360,0.0,-999.0,57,-99.99,,,0.00,weatherlink.com 1.10,2013-05-02 21:46:00,
2013-05-02 14:01:00,32.4,20.0,29.89,North,360,0.0,-999.0,60,-99.99,,,0.00,weatherlink.com 1.10,2013-05-02 22:01:00,
2013-05-02 14:17:00,31.7,20.0,29.90,North,-999,0.0,-999.0,61,-99.99,,,0.00,weatherlink.com 1.10,2013-05-02 22:17:00,
2013-05-02 14:32:00,33.3,20.0,29.90,North,360,0.0,-999.0,59,-99.99,,,0.00,weatherlink.com 1.10,2013-05-02 22:32:00,
2013-05-02 14:47:00,33.8,21.0,29.90,North,-999,0.0,-999.0,59,-99.99,,,0.00,weatherlink.com 1.10,2013-05-02 22:47:00,
2013-05-02 15:02:00,34.0,20.0,29.90,North,-999,0.0,-999.0,58,-99.99,,,0.00,weatherlink.com 1.10,2013-05-02 23:02:00,
2013-05-02 15:17:00,34.4,20.0,29.90,North,360,0.0,-999.0,57,-99.99,,,0.00,weatherlink.com 1.10,2013-05-02 23:17:00,
2013-05-02 15:32:00,34.1,21.0,29.90,North,-999,0.0,-999.0,58,-99.99,,,0.00,weatherlink.com 1.10,2013-05-02 23:32:00,
2013-05-02 15:47:00,35.0,21.0,29.90,North,-999,0.0,-999.0,57,-99.99,,,0.00,weatherlink.com 1.10,2013-05-02 23:47:00,
2013-05-02 16:02:00,36.1,22.0,29.89,North,-999,0.0,-999.0,56,-99.99,,,0.00,weatherlink.com 1.10,2013-05-03 00:02:00,
2013-05-02 16:17:00,34.7,20.0,29.89,North,-999,0.0,-999.0,56,-99.99,,,0.00,weatherlink.com 1.10,2013-05-03 00:17:00,
2013-05-02 16:32:00,35.2,21.0,29.89,North,-999,0.0,-999.0,56,-99.99,,,0.00,weatherlink.com 1.10,2013-05-03 00:32:00,
2013-05-02 16:47:00,34.9,20.0,29.89,North,-999,0.0,-999.0,56,-99.99,,,0.00,weatherlink.com 1.10,2013-05-03 00:47:00,
2013-05-02 17:02:00,35.5,21.0,29.89,North,-999,0.0,-999.0,55,-99.99,,,0.00,weatherlink.com 1.10,2013-05-03 01:02:00,
2013-05-02 17:17:00,35.7,22.0,29.89,North,360,0.0,-999.0,57,-99.99,,,0.00,weatherlink.com 1.10,2013-05-03 01:17:00,
2013-05-02 17:32:00,35.7,20.0,29.89,North,360,0.0,-999.0,54,-99.99,,,0.00,weatherlink.com 1.10,2013-05-03 01:32:00,
2013-05-02 17:47:00,36.4,22.0,29.89,North,-999,0.0,-999.0,56,-99.99,,,0.00,weatherlink.com 1.10,2013-05-03 01:47:00,
2013-05-02 18:02:00,36.4,21.0,29.89,North,-999,0.0,-999.0,55,-99.99,,,0.00,weatherlink.com 1.10,2013-05-03 02:02:00,
2013-05-02 18:17:00,36.3,22.0,29.89,North,-999,0.0,-999.0,56,-99.99,,,0.00,weatherlink.com 1.10,2013-05-03 02:17:00,
2013-05-02 18:32:00,34.8,22.0,29.89,North,-999,0.0,-999.0,60,-99.99,,,0.00,weatherlink.com 1.10,2013-05-03 02:32:00,
2013-05-02 18:47:00,34.4,22.0,29.90,North,360,0.0,-999.0,62,-99.99,,,0.00,weatherlink.com 1.10,2013-05-03 02:47:00,
2013-05-02 19:02:00,34.1,22.0,29.90,North,360,0.0,-999.0,61,-99.99,,,0.00,weatherlink.com 1.10,2013-05-03 03:02:00,
2013-05-02 19:17:00,33.7,22.0,29.90,North,360,0.0,-999.0,62,-99.99,,,0.00,weatherlink.com 1.10,2013-05-03 03:17:00,
2013-05-02 19:32:00,33.4,22.0,29.90,North,-999,0.0,-999.0,63,-99.99,,,0.00,weatherlink.com 1.10,2013-05-03 03:32:00,
2013-05-02 19:47:00,33.5,22.0,29.90,North,-999,0.0,-999.0,63,-99.99,,,0.00,weatherlink.com 1.10,2013-05-03 03:47:00,
2013-05-02 20:02:00,33.5,22.0,29.90,North,-999,0.0,-999.0,64,-99.99,,,0.00,weatherlink.com 1.10,2013-05-03 04:02:00,
2013-05-02 20:17:00,33.4,22.0,29.91,North,-999,0.0,-999.0,64,-99.99,,,0.00,weatherlink.com 1.10,2013-05-03 04:17:00,
2013-05-02 20:32:00,33.0,23.0,29.91,North,-999,0.0,-999.0,67,-99.99,,,0.00,weatherlink.com 1.10,2013-05-03 04:32:00,
2013-05-02 20:47:00,32.8,22.0,29.91,North,360,0.0,-999.0,64,-99.99,,,0.00,weatherlink.com 1.10,2013-05-03 04:47:00,
2013-05-02 21:17:00,32.7,22.0,29.91,North,-999,0.0,-999.0,64,-99.99,,,0.00,weatherlink.com 1.10,2013-05-03 05:17:00,
2013-05-02 21:32:00,32.5,22.0,29.91,North,-999,0.0,-999.0,65,-99.99,,,0.00,weatherlink.com 1.10,2013-05-03 05:32:00,
2013-05-02 21:47:00,32.3,22.0,29.91,North,-999,0.0,-999.0,67,-99.99,,,0.00,weatherlink.com 1.10,2013-05-03 05:47:00,
2013-05-02 22:02:00,-999.0,-99.9,29.87,North,-999,-999.0,-999.0,-999,-99.99,,,0.00,weatherlink.com 1.10,2013-05-03 06:02:00,
2013-05-02 22:17:00,-999.0,-99.9,29.87,North,-999,-999.0,-999.0,-999,-99.99,,,0.00,weatherlink.com 1.10,2013-05-03 06:17:00,
2013-05-02 22:32:00,-999.0,-99.9,29.87,North,-999,-999.0,-999.0,-999,-99.99,,,0.00,weatherlink.com 1.10,2013-05-03 06:32:00,
2013-05-02 22:47:00,-999.0,-99.9,29.87,North,-999,-999.0,-999.0,-999,-99.99,,,0.00,weatherlink.com 1.10,2013-05-03 06:47:00,
2013-05-02 23:02:00,-999.0,-99.9,29.88,North,-999,-999.0,-999.0,-999,-99.99,,,0.00,weatherlink.com 1.10,2013-05-03 07:02:00,
2013-05-02 23:17:00,-999.0,-99.9,29.88,North,-999,-999.0,-999.0,-999,-99.99,,,0.00,weatherlink.com 1.10,2013-05-03 07:17:00,
2013-05-02 23:32:00,-999.0,-99.9,29.88,North,-999,-999.0,-999.0,-999,-99.99,,,0.00,weatherlink.com 1.10,2013-05-03 07:32:00,
2013-05-02 23:47:00,-999.0,-99.9,29.88,North,-999,-999.0,-999.0,-999,-99.99,,,0.00,weatherlink.com 1.10,2013-05-03 07:47:00,